createdAt,value
2023-04-02T00:00:31.136Z,76.69
2023-04-02T00:03:22.335Z,76.99
2023-04-02T00:05:51.046Z,77.04
2023-04-02T00:08:24.451Z,77.05
2023-04-02T00:10:58.021Z,77.20
2023-04-02T00:13:32.210Z,77.93
2023-04-02T00:16:03.538Z,77.79
2023-04-02T00:18:34.319Z,77.96
2023-04-02T00:21:13.729Z,78.63
2023-04-02T00:23:44.261Z,79.33
2023-04-02T00:26:42.640Z,79.53
2023-04-02T00:29:14.159Z,79.96
2023-04-02T00:31:44.987Z,80.11
2023-04-02T00:34:22.770Z,79.65
2023-04-02T00:36:52.482Z,80.39
2023-04-02T00:39:30.934Z,80.61
2023-04-02T00:42:05.844Z,80.85
2023-04-02T00:44:45.314Z,81.16
2023-04-02T00:47:27.667Z,81.41
2023-04-02T00:50:21.059Z,81.50
2023-04-02T00:52:52.570Z,81.39
2023-04-02T00:55:41.862Z,81.14
2023-04-02T00:58:32.803Z,81.22
2023-04-02T01:01:01.591Z,80.70
2023-04-02T01:03:35.284Z,81.02
2023-04-02T01:06:11.793Z,81.06
2023-04-02T01:08:45.848Z,81.24
2023-04-02T01:11:32.401Z,81.50
2023-04-02T01:14:20.579Z,81.59
2023-04-02T01:17:26.578Z,81.22
2023-04-02T01:20:19.795Z,80.94
2023-04-02T01:23:11.603Z,81.36
2023-04-02T01:26:14.425Z,81.44
2023-04-02T01:28:54.999Z,81.38
2023-04-02T01:31:24.127Z,81.56
2023-04-02T01:33:52.371Z,81.49
2023-04-02T01:36:23.455Z,81.56
2023-04-02T01:39:10.779Z,81.61
2023-04-02T01:41:41.873Z,81.97
2023-04-02T01:44:15.402Z,82.28
2023-04-02T01:46:45.038Z,81.75
2023-04-02T01:49:18.729Z,81.76
2023-04-02T01:51:53.171Z,81.70
2023-04-02T01:54:23.628Z,81.81
2023-04-02T01:56:52.341Z,81.86
2023-04-02T01:59:22.652Z,82.02
2023-04-02T02:02:05.492Z,81.49
2023-04-02T02:04:35.648Z,81.42
2023-04-02T02:07:05.002Z,81.17
2023-04-02T02:09:35.744Z,80.93
2023-04-02T02:12:05.356Z,80.07
2023-04-02T02:14:33.672Z,79.98
2023-04-02T02:17:04.402Z,80.46
2023-04-02T02:19:37.102Z,80.56
2023-04-02T02:22:24.323Z,80.81
2023-04-02T02:24:54.776Z,80.73
2023-04-02T02:27:23.243Z,80.59
2023-04-02T02:30:19.344Z,80.76
2023-04-02T02:32:57.972Z,80.88
2023-04-02T02:35:56.189Z,81.27
2023-04-02T02:38:34.119Z,81.43
2023-04-02T02:41:21.734Z,81.87
2023-04-02T02:44:20.118Z,82.07
2023-04-02T02:46:54.404Z,81.82
2023-04-02T02:49:26.323Z,81.57
2023-04-02T02:52:10.169Z,81.61
2023-04-02T02:54:51.258Z,82.17
2023-04-02T02:57:27.766Z,82.13
2023-04-02T02:59:59.474Z,82.30
2023-04-02T03:02:29.142Z,81.96
2023-04-02T03:04:58.528Z,81.93
2023-04-02T03:07:29.380Z,81.70
2023-04-02T03:10:18.304Z,81.80
2023-04-02T03:13:26.505Z,81.64
2023-04-02T03:16:17.930Z,81.93
2023-04-02T03:18:56.027Z,81.96
2023-04-02T03:21:37.461Z,81.40
2023-04-02T03:24:18.086Z,81.47
2023-04-02T03:26:56.401Z,81.36
2023-04-02T03:29:34.200Z,81.72
2023-04-02T03:32:21.345Z,81.95
2023-04-02T03:34:59.724Z,82.08
2023-04-02T03:37:41.184Z,82.16
2023-04-02T03:40:21.301Z,82.37
2023-04-02T03:43:12.345Z,82.56
2023-04-02T03:45:46.021Z,82.25
2023-04-02T03:48:18.611Z,81.96
2023-04-02T03:50:53.515Z,81.93
2023-04-02T03:53:25.802Z,81.69
2023-04-02T03:55:56.645Z,81.58
2023-04-02T03:58:47.140Z,81.71
2023-04-02T04:01:29.953Z,83.10
2023-04-02T04:04:06.036Z,83.83
2023-04-02T04:06:35.843Z,84.10
2023-04-02T04:09:29.680Z,83.85
2023-04-02T04:12:07.828Z,83.60
2023-04-02T04:14:41.900Z,83.57
2023-04-02T04:17:23.908Z,83.66
2023-04-02T04:20:00.236Z,83.55
2023-04-02T04:22:32.898Z,83.56
2023-04-02T04:25:33.906Z,83.76
2023-04-02T04:28:38.623Z,83.63
2023-04-02T04:31:47.337Z,83.26
2023-04-02T04:34:31.501Z,83.19
2023-04-02T04:37:07.740Z,82.74
2023-04-02T04:39:55.707Z,82.39
2023-04-02T04:42:29.191Z,82.47
2023-04-02T04:45:28.730Z,82.61
2023-04-02T04:48:10.842Z,82.65
2023-04-02T04:50:55.282Z,83.02
2023-04-02T04:53:27.716Z,82.97
2023-04-02T04:56:16.556Z,82.43
2023-04-02T04:58:51.364Z,82.20
2023-04-02T05:01:19.517Z,82.16
2023-04-02T05:04:03.208Z,82.14
2023-04-02T05:06:39.764Z,81.94
2023-04-02T05:09:23.237Z,81.88
2023-04-02T05:12:24.776Z,81.23
2023-04-02T05:15:17.568Z,81.86
2023-04-02T05:17:53.766Z,82.10
2023-04-02T05:20:28.639Z,82.26
2023-04-02T05:23:05.329Z,82.43
2023-04-02T05:25:34.214Z,81.75
2023-04-02T05:28:26.786Z,81.68
2023-04-02T05:31:04.401Z,81.04
2023-04-02T05:33:35.472Z,80.68
2023-04-02T05:36:19.629Z,80.30
2023-04-02T05:38:52.242Z,80.16
2023-04-02T05:41:36.939Z,79.59
2023-04-02T05:44:50.072Z,78.83
2023-04-02T05:47:26.303Z,78.63
2023-04-02T05:50:07.656Z,78.27
2023-04-02T05:52:45.884Z,78.12
2023-04-02T05:55:17.069Z,77.98
2023-04-02T05:58:13.626Z,77.96
2023-04-02T06:01:04.336Z,78.11
2023-04-02T06:03:35.399Z,77.62
2023-04-02T06:06:14.755Z,77.78
2023-04-02T06:08:52.275Z,77.43
2023-04-02T06:11:27.404Z,77.01
2023-04-02T06:13:56.216Z,76.10
2023-04-02T06:16:28.850Z,75.66
2023-04-02T06:18:57.949Z,75.01
2023-04-02T06:21:27.084Z,74.58
2023-04-02T06:24:01.708Z,73.79
2023-04-02T06:26:38.261Z,72.83
2023-04-02T06:29:25.762Z,71.66
2023-04-02T06:32:01.919Z,70.86
2023-04-02T06:34:31.951Z,69.96
2023-04-02T06:37:40.001Z,68.23
2023-04-02T06:40:33.688Z,67.71
2023-04-02T06:43:36.239Z,66.75
2023-04-02T06:46:38.056Z,65.93
2023-04-02T06:49:24.849Z,65.19
2023-04-02T06:52:01.509Z,64.23
2023-04-02T06:54:31.392Z,63.63
2023-04-02T06:57:07.494Z,63.92
2023-04-02T06:59:39.514Z,63.30
2023-04-02T07:02:19.968Z,63.04
2023-04-02T07:04:49.048Z,63.29
2023-04-02T07:07:17.893Z,61.72
2023-04-02T07:09:47.772Z,61.15
2023-04-02T07:12:22.656Z,60.94
2023-04-02T07:14:51.624Z,60.27
2023-04-02T07:17:21.488Z,59.57
2023-04-02T07:19:49.856Z,59.34
2023-04-02T07:22:21.383Z,60.38
2023-04-02T07:24:53.673Z,59.97
2023-04-02T07:27:21.945Z,58.97
2023-04-02T07:29:50.042Z,60.27
2023-04-02T07:32:19.625Z,61.19
2023-04-02T07:34:49.051Z,61.55
2023-04-02T07:37:17.189Z,61.95
2023-04-02T07:39:45.447Z,62.11
2023-04-02T07:42:13.667Z,62.33
2023-04-02T07:44:43.296Z,61.93
2023-04-02T07:47:11.623Z,61.66
2023-04-02T07:49:39.892Z,61.94
2023-04-02T07:52:08.033Z,61.86
2023-04-02T07:54:36.268Z,60.89
2023-04-02T07:57:04.527Z,60.26
2023-04-02T07:59:32.737Z,59.98
2023-04-02T08:02:01.003Z,60.47
2023-04-02T08:04:29.191Z,59.82
2023-04-02T08:06:57.395Z,58.48
2023-04-02T08:09:25.651Z,58.12
2023-04-02T08:11:53.785Z,57.25
2023-04-02T08:14:21.970Z,56.34
2023-04-02T08:16:52.952Z,55.16
2023-04-02T08:19:21.786Z,53.79
2023-04-02T08:21:52.057Z,53.89
2023-04-02T08:24:21.425Z,52.34
2023-04-02T08:26:51.696Z,51.59
2023-04-02T08:29:20.982Z,51.58
2023-04-02T08:31:49.333Z,50.39
2023-04-02T08:34:17.472Z,49.45
2023-04-02T08:36:46.014Z,49.35
2023-04-02T08:39:14.864Z,49.65
2023-04-02T08:41:58.544Z,48.41
2023-04-02T08:44:50.648Z,47.36
2023-04-02T08:47:21.755Z,47.17
2023-04-02T08:49:56.149Z,47.99
2023-04-02T08:52:25.936Z,47.86
2023-04-02T08:54:56.297Z,47.85
2023-04-02T08:57:36.745Z,47.77
2023-04-02T09:00:20.966Z,47.48
2023-04-02T09:03:08.013Z,48.29
2023-04-02T09:05:40.935Z,48.43
2023-04-02T09:08:25.075Z,48.69
2023-04-02T09:10:59.293Z,49.10
2023-04-02T09:13:30.623Z,48.58
2023-04-02T09:16:12.033Z,48.28
2023-04-02T09:18:40.712Z,48.73
2023-04-02T09:21:42.040Z,48.79
2023-04-02T09:24:15.980Z,49.78
2023-04-02T09:26:44.067Z,49.81
2023-04-02T09:29:12.197Z,50.41
2023-04-02T09:31:45.613Z,50.76
2023-04-02T09:34:30.727Z,51.21
2023-04-02T09:37:16.436Z,51.31
2023-04-02T09:39:44.769Z,51.46
2023-04-02T09:42:29.927Z,52.59
2023-04-02T09:45:23.964Z,53.58
2023-04-02T09:47:56.280Z,54.23
2023-04-02T09:50:28.901Z,55.79
2023-04-02T09:52:57.591Z,56.62
2023-04-02T09:55:31.103Z,57.00
2023-04-02T09:58:12.069Z,57.05
2023-04-02T10:00:49.470Z,57.27
2023-04-02T10:03:28.978Z,57.27
2023-04-02T10:06:12.934Z,57.43
2023-04-02T10:08:44.393Z,57.88
2023-04-02T10:11:36.409Z,58.62
2023-04-02T10:14:21.736Z,58.42
2023-04-02T10:16:53.869Z,58.73
2023-04-02T10:19:32.475Z,59.11
2023-04-02T10:22:07.148Z,58.52
2023-04-02T10:24:35.480Z,57.52
2023-04-02T10:27:12.215Z,56.09
2023-04-02T10:29:48.326Z,56.53
2023-04-02T10:32:30.814Z,55.62
2023-04-02T10:35:03.700Z,54.20
2023-04-02T10:37:48.973Z,53.68
2023-04-02T10:40:29.442Z,53.70
2023-04-02T10:43:23.576Z,54.90
2023-04-02T10:46:01.147Z,55.45
2023-04-02T10:48:44.694Z,55.28
2023-04-02T10:51:51.992Z,55.21
2023-04-02T10:54:45.011Z,56.28
2023-04-02T10:57:35.368Z,56.13
2023-04-02T11:00:19.052Z,56.40
2023-04-02T11:03:02.981Z,56.22
2023-04-02T11:05:48.003Z,56.64
2023-04-02T11:08:34.556Z,56.49
2023-04-02T11:11:16.958Z,56.88
2023-04-02T11:14:01.225Z,57.63
2023-04-02T11:16:29.862Z,57.60
2023-04-02T11:19:16.109Z,57.71
2023-04-02T11:22:06.453Z,58.43
2023-04-02T11:24:45.435Z,58.57
2023-04-02T11:27:27.956Z,58.58
2023-04-02T11:30:27.167Z,57.62
2023-04-02T11:36:25.692Z,58.07
2023-04-02T11:38:55.007Z,58.23
2023-04-02T11:42:07.854Z,57.41
2023-04-02T11:44:36.242Z,58.49
2023-04-02T11:47:33.948Z,59.20
2023-04-02T11:50:05.259Z,60.32
2023-04-02T11:52:38.998Z,61.21
2023-04-02T11:55:24.497Z,61.05
2023-04-02T11:58:21.268Z,60.09
2023-04-02T12:01:15.806Z,58.97
2023-04-02T12:04:07.196Z,58.41
2023-04-02T12:06:47.476Z,57.50
2023-04-02T12:09:25.515Z,57.68
2023-04-02T12:12:00.764Z,58.17
2023-04-02T12:14:45.819Z,57.97
2023-04-02T12:17:27.164Z,58.99
2023-04-02T12:20:09.949Z,59.56
2023-04-02T12:22:41.136Z,57.15
2023-04-02T12:25:23.286Z,57.80
2023-04-02T12:28:24.562Z,57.91
2023-04-02T12:31:03.715Z,58.17
2023-04-02T12:33:37.490Z,57.91
2023-04-02T12:36:26.444Z,57.66
2023-04-02T12:38:57.479Z,57.90
2023-04-02T12:41:27.387Z,58.33
2023-04-02T12:44:15.570Z,58.55
2023-04-02T12:46:45.951Z,58.76
2023-04-02T12:49:32.729Z,58.30
2023-04-02T12:52:07.477Z,57.16
2023-04-02T12:54:58.559Z,56.02
2023-04-02T12:57:26.705Z,54.67
2023-04-02T13:00:27.570Z,54.52
2023-04-02T13:03:01.200Z,54.34
2023-04-02T13:05:44.438Z,53.41
2023-04-02T13:08:42.096Z,52.22
2023-04-02T13:11:10.644Z,51.23
2023-04-02T13:13:41.407Z,51.37
2023-04-02T13:16:15.938Z,49.90
2023-04-02T13:18:45.129Z,50.46
2023-04-02T13:21:16.511Z,50.36
2023-04-02T13:23:46.265Z,50.02
2023-04-02T13:26:28.730Z,49.13
2023-04-02T13:29:03.032Z,49.00
2023-04-02T13:31:32.712Z,48.25
2023-04-02T13:34:01.593Z,48.53
2023-04-02T13:36:29.853Z,48.06
2023-04-02T13:38:58.066Z,48.08
2023-04-02T13:41:28.692Z,48.37
2023-04-02T13:44:02.400Z,48.08
2023-04-02T13:46:32.982Z,47.66
2023-04-02T13:49:01.707Z,46.81
2023-04-02T13:51:37.436Z,47.21
2023-04-02T13:54:14.010Z,47.77
2023-04-02T13:56:42.741Z,48.03
2023-04-02T13:59:11.057Z,47.84
2023-04-02T14:01:41.414Z,48.29
2023-04-02T14:04:13.764Z,48.35
2023-04-02T14:07:01.626Z,48.51
2023-04-02T14:09:54.002Z,48.75
2023-04-02T14:12:33.587Z,48.11
2023-04-02T14:15:33.931Z,48.17
2023-04-02T14:18:27.092Z,49.58
2023-04-02T14:21:27.055Z,50.36
2023-04-02T14:24:36.292Z,50.29
2023-04-02T14:27:23.762Z,50.93
2023-04-02T14:30:18.480Z,50.52
2023-04-02T14:32:49.483Z,50.71
2023-04-02T14:35:29.861Z,50.89
2023-04-02T14:38:17.197Z,50.21
2023-04-02T14:40:46.580Z,50.84
2023-04-02T14:43:22.497Z,51.40
2023-04-02T14:45:58.072Z,51.91
2023-04-02T14:48:45.177Z,52.66
2023-04-02T14:51:27.436Z,53.07
2023-04-02T14:53:55.692Z,52.09
2023-04-02T14:56:25.715Z,51.80
2023-04-02T14:59:34.413Z,52.84
2023-04-02T15:02:09.467Z,53.00
2023-04-02T15:04:41.752Z,53.25
2023-04-02T15:07:19.913Z,53.45
2023-04-02T15:09:54.886Z,53.91
2023-04-02T15:12:28.816Z,53.89
2023-04-02T15:15:39.049Z,54.31
2023-04-02T15:18:15.110Z,54.60
2023-04-02T15:20:54.974Z,54.54
2023-04-02T15:24:15.510Z,54.25
2023-04-02T15:27:24.868Z,54.11
2023-04-02T15:29:58.041Z,53.76
2023-04-02T15:32:32.080Z,53.53
2023-04-02T15:35:54.672Z,53.81
2023-04-02T15:38:30.362Z,53.23
2023-04-02T15:41:13.830Z,52.55
2023-04-02T15:44:09.938Z,53.17
2023-04-02T15:47:01.804Z,53.30
2023-04-02T15:49:48.741Z,52.83
2023-04-02T15:52:22.640Z,53.67
2023-04-02T15:55:09.862Z,54.39
2023-04-02T15:58:17.397Z,56.12
2023-04-02T16:01:03.674Z,57.25
2023-04-02T16:03:47.601Z,57.81
2023-04-02T16:06:39.716Z,58.12
2023-04-02T16:09:16.260Z,58.62
2023-04-02T16:11:44.413Z,59.31
2023-04-02T16:14:28.050Z,59.60
2023-04-02T16:17:10.870Z,60.55
2023-04-02T16:19:51.241Z,60.40
2023-04-02T16:22:26.020Z,61.05
2023-04-02T16:25:16.062Z,61.24
2023-04-02T16:27:51.541Z,61.29
2023-04-02T16:30:41.534Z,61.34
2023-04-02T16:33:28.194Z,62.17
2023-04-02T16:36:11.894Z,62.13
2023-04-02T16:38:43.086Z,61.78
2023-04-02T16:41:19.468Z,61.89
2023-04-02T16:44:21.997Z,61.99
2023-04-02T16:47:02.629Z,63.06
2023-04-02T16:49:49.226Z,63.99
2023-04-02T16:52:43.198Z,64.07
2023-04-02T16:55:11.767Z,63.98
2023-04-02T16:58:37.728Z,63.99
2023-04-02T17:01:20.707Z,63.42
2023-04-02T17:03:57.938Z,63.34
2023-04-02T17:06:39.879Z,63.30
2023-04-02T17:09:24.105Z,62.96
2023-04-02T17:12:01.586Z,63.45
2023-04-02T17:15:03.751Z,63.71
2023-04-02T17:17:32.002Z,63.55
2023-04-02T17:20:01.135Z,63.62
2023-04-02T17:22:31.637Z,63.91
2023-04-02T17:25:04.801Z,63.85
2023-04-02T17:27:39.703Z,64.07
2023-04-02T17:30:43.340Z,64.32
2023-04-02T17:33:17.563Z,64.40
2023-04-02T17:36:02.736Z,64.38
2023-04-02T17:38:44.074Z,64.85
2023-04-02T17:41:28.954Z,65.02
2023-04-02T17:43:57.065Z,64.83
2023-04-02T17:46:49.630Z,65.14
2023-04-02T17:49:56.557Z,65.60
2023-04-02T17:52:33.488Z,65.76
2023-04-02T17:55:19.592Z,65.95
2023-04-02T17:58:18.607Z,65.73
2023-04-02T18:01:41.052Z,65.94
2023-04-02T18:04:46.531Z,65.90
2023-04-02T18:07:35.702Z,65.52
2023-04-02T18:10:24.057Z,65.71
2023-04-02T18:13:11.953Z,65.25
2023-04-02T18:15:53.569Z,64.90
2023-04-02T18:18:59.317Z,64.86
2023-04-02T18:21:46.453Z,65.26
2023-04-02T18:24:30.867Z,65.18
2023-04-02T18:27:17.967Z,65.35
2023-04-02T18:29:58.298Z,65.43
2023-04-02T18:32:38.236Z,66.02
2023-04-02T18:35:38.838Z,66.27
2023-04-02T18:38:24.045Z,66.76
2023-04-02T18:41:31.489Z,66.66
2023-04-02T18:44:28.735Z,66.67
2023-04-02T18:47:15.554Z,66.49
2023-04-02T18:49:51.947Z,66.14
2023-04-02T18:52:24.882Z,66.21
2023-04-02T18:54:59.960Z,65.78
2023-04-02T18:57:36.179Z,65.73
2023-04-02T19:00:34.844Z,66.12
2023-04-02T19:03:12.660Z,66.48
2023-04-02T19:05:51.519Z,66.33
2023-04-02T19:08:42.086Z,66.88
2023-04-02T19:11:19.073Z,67.14
2023-04-02T19:13:49.125Z,67.65
2023-04-02T19:16:17.289Z,67.91
2023-04-02T19:18:54.318Z,68.18
2023-04-02T19:21:37.433Z,68.31
2023-04-02T19:24:22.047Z,68.12
2023-04-02T19:27:32.189Z,68.34
2023-04-02T19:30:38.668Z,68.72
2023-04-02T19:34:00.980Z,68.52
2023-04-02T19:36:40.397Z,68.54
2023-04-02T19:39:24.862Z,68.59
2023-04-02T19:42:11.657Z,68.73
2023-04-02T19:44:45.231Z,68.94
2023-04-02T19:47:14.646Z,68.74
2023-04-02T19:49:42.910Z,69.07
2023-04-02T19:52:11.394Z,69.06
2023-04-02T19:54:39.720Z,69.02
2023-04-02T19:57:08.266Z,69.05
2023-04-02T19:59:36.495Z,69.19
2023-04-02T20:02:07.281Z,69.58
2023-04-02T20:04:35.716Z,69.42
2023-04-02T20:07:03.832Z,69.46
2023-04-02T20:09:31.941Z,69.39
2023-04-02T20:12:00.305Z,69.17
2023-04-02T20:14:28.444Z,69.04
2023-04-02T20:16:56.756Z,69.41
2023-04-02T20:19:25.028Z,69.27
2023-04-02T20:21:53.142Z,69.35
2023-04-02T20:24:21.334Z,69.37
2023-04-02T20:26:49.664Z,69.32
2023-04-02T20:29:17.853Z,69.72
2023-04-02T20:31:46.183Z,69.63
2023-04-02T20:34:14.590Z,69.77
2023-04-02T20:36:42.996Z,69.94
2023-04-02T20:39:12.193Z,70.13
2023-04-02T20:41:40.415Z,69.99
2023-04-02T20:44:08.629Z,70.20
2023-04-02T20:46:36.879Z,70.34
2023-04-02T20:49:05.175Z,70.83
2023-04-02T20:51:34.414Z,70.98
2023-04-02T20:54:02.611Z,70.88
2023-04-02T20:56:30.748Z,71.18
2023-04-02T20:58:58.958Z,71.43
2023-04-02T21:01:30.049Z,71.34
2023-04-02T21:04:01.173Z,71.74
2023-04-02T21:06:32.920Z,72.05
2023-04-02T21:09:02.804Z,71.95
2023-04-02T21:11:31.036Z,72.28
2023-04-02T21:13:59.631Z,72.60
2023-04-02T21:16:30.008Z,73.22
2023-04-02T21:19:01.041Z,73.26
2023-04-02T21:21:29.546Z,73.52
2023-04-02T21:24:00.462Z,73.63
2023-04-02T21:26:31.313Z,73.59
2023-04-02T21:29:00.740Z,73.22
2023-04-02T21:31:31.309Z,73.51
2023-04-02T21:34:00.122Z,73.61
2023-04-02T21:36:31.488Z,73.67
2023-04-02T21:39:02.330Z,73.23
2023-04-02T21:41:33.215Z,73.19
2023-04-02T21:44:03.306Z,73.45
2023-04-02T21:46:36.244Z,73.61
2023-04-02T21:49:08.116Z,73.62
2023-04-02T21:51:38.899Z,73.68
2023-04-02T21:54:08.078Z,73.80
2023-04-02T21:56:39.442Z,73.67
2023-04-02T21:59:09.860Z,73.36
2023-04-02T22:01:46.598Z,72.86
2023-04-02T22:04:18.569Z,72.06
2023-04-02T22:06:47.958Z,71.90
2023-04-02T22:09:19.242Z,71.48
2023-04-02T22:11:50.954Z,71.58
2023-04-02T22:14:19.073Z,71.68
2023-04-02T22:16:47.443Z,71.71
2023-04-02T22:19:17.005Z,71.76
2023-04-02T22:21:46.132Z,71.82
2023-04-02T22:24:16.437Z,71.59
2023-04-02T22:26:45.474Z,71.40
2023-04-02T22:29:13.778Z,71.17
2023-04-02T22:31:42.037Z,71.19
2023-04-02T22:34:10.509Z,70.97
2023-04-02T22:36:38.728Z,70.80
2023-04-02T22:39:10.339Z,70.54
2023-04-02T22:41:38.672Z,70.12
2023-04-02T22:44:06.950Z,70.19
2023-04-02T22:46:35.227Z,70.67
2023-04-02T22:49:03.688Z,70.36
2023-04-02T22:51:31.812Z,70.59
2023-04-02T22:54:00.085Z,70.26
2023-04-02T22:56:32.404Z,70.19
2023-04-02T22:59:00.940Z,70.37
2023-04-02T23:01:32.533Z,70.90
2023-04-02T23:04:01.062Z,70.88
2023-04-02T23:06:29.380Z,71.08
2023-04-02T23:08:58.103Z,71.00
2023-04-02T23:11:28.174Z,70.78
2023-04-02T23:13:57.834Z,70.56
2023-04-02T23:16:28.375Z,70.35
2023-04-02T23:18:57.557Z,70.21
2023-04-02T23:21:26.270Z,70.20
2023-04-02T23:23:54.560Z,70.27
2023-04-02T23:26:27.258Z,70.28
2023-04-02T23:28:55.388Z,70.36
2023-04-02T23:31:24.184Z,70.41
2023-04-02T23:33:52.871Z,70.72
2023-04-02T23:36:27.777Z,70.71
2023-04-02T23:39:01.247Z,70.86
2023-04-02T23:41:30.773Z,71.04
2023-04-02T23:43:59.748Z,71.22
2023-04-02T23:46:29.146Z,71.18
2023-04-02T23:48:58.981Z,71.58
2023-04-02T23:51:28.938Z,71.51
2023-04-02T23:53:57.307Z,71.43
2023-04-02T23:56:26.014Z,71.38
2023-04-02T23:58:54.313Z,71.45
